createdAt,value
2023-02-19T00:01:10.632Z,3.40
2023-02-19T00:03:52.316Z,2.70
2023-02-19T00:06:25.684Z,3.40
2023-02-19T00:08:58.089Z,4.50
2023-02-19T00:11:32.015Z,2.40
2023-02-19T00:14:05.270Z,3.30
2023-02-19T00:16:39.717Z,3.80
2023-02-19T00:19:16.615Z,2.40
2023-02-19T00:21:49.683Z,2.90
2023-02-19T00:24:22.246Z,2.40
2023-02-19T00:26:54.586Z,2.70
2023-02-19T00:29:26.871Z,2.00
2023-02-19T00:32:00.240Z,3.10
2023-02-19T00:34:32.564Z,2.20
2023-02-19T00:37:04.715Z,3.60
2023-02-19T00:39:37.603Z,3.10
2023-02-19T00:42:09.906Z,2.80
2023-02-19T00:44:42.022Z,3.10
2023-02-19T00:47:14.223Z,3.20
2023-02-19T00:49:46.560Z,2.60
2023-02-19T00:52:18.784Z,2.00
2023-02-19T00:54:51.028Z,3.00
2023-02-19T00:57:23.061Z,3.20
2023-02-19T00:59:55.359Z,3.80
2023-02-19T01:02:27.847Z,2.40
2023-02-19T01:05:00.832Z,3.70
2023-02-19T01:07:32.864Z,3.40
2023-02-19T01:10:06.596Z,4.40
2023-02-19T01:12:38.808Z,2.40
2023-02-19T01:15:11.782Z,3.20
2023-02-19T01:17:43.890Z,3.70
2023-02-19T01:20:16.056Z,2.80
2023-02-19T01:22:48.322Z,3.80
2023-02-19T01:25:20.817Z,2.40
2023-02-19T01:27:52.867Z,3.50
2023-02-19T01:30:25.102Z,3.70
2023-02-19T01:32:57.358Z,3.70
2023-02-19T01:35:29.685Z,3.10
2023-02-19T01:38:02.505Z,2.80
2023-02-19T01:40:34.677Z,3.40
2023-02-19T01:43:12.296Z,3.40
2023-02-19T01:45:46.551Z,3.50
2023-02-19T01:48:22.315Z,2.60
2023-02-19T01:50:59.697Z,4.10
2023-02-19T01:53:38.867Z,3.20
2023-02-19T01:56:11.926Z,2.50
2023-02-19T01:58:45.165Z,3.70
2023-02-19T02:01:18.458Z,3.60
2023-02-19T02:03:53.041Z,4.40
2023-02-19T02:06:28.664Z,4.80
2023-02-19T02:09:20.865Z,3.90
2023-02-19T02:11:54.730Z,4.90
2023-02-19T02:14:31.517Z,5.50
2023-02-19T02:17:13.713Z,3.60
2023-02-19T02:20:13.769Z,3.60
2023-02-19T02:22:50.827Z,5.20
2023-02-19T02:25:44.424Z,4.20
2023-02-19T02:28:42.365Z,6.50
2023-02-19T02:31:18.443Z,4.90
2023-02-19T02:36:28.724Z,5.90
2023-02-19T02:39:05.480Z,6.20
2023-02-19T02:41:45.465Z,6.40
2023-02-19T02:44:17.736Z,6.50
2023-02-19T02:46:51.828Z,7.70
2023-02-19T02:49:26.081Z,8.80
2023-02-19T02:52:20.925Z,6.40
2023-02-19T02:55:05.426Z,6.50
2023-02-19T02:57:38.386Z,6.90
2023-02-19T03:00:13.418Z,7.70
2023-02-19T03:02:46.823Z,8.00
2023-02-19T03:05:39.893Z,7.50
2023-02-19T03:08:16.904Z,8.10
2023-02-19T03:10:56.602Z,6.90
2023-02-19T03:13:53.045Z,6.70
2023-02-19T03:16:50.386Z,9.20
2023-02-19T03:19:24.606Z,8.30
2023-02-19T03:22:10.390Z,7.30
2023-02-19T03:25:04.129Z,7.50
2023-02-19T03:27:39.814Z,8.10
2023-02-19T03:30:18.166Z,8.50
2023-02-19T03:32:56.274Z,7.80
2023-02-19T03:35:31.808Z,5.90
2023-02-19T03:38:10.502Z,6.30
2023-02-19T03:40:46.686Z,6.10
2023-02-19T03:43:23.290Z,6.80
2023-02-19T03:46:06.068Z,9.60
2023-02-19T03:48:42.645Z,6.80
2023-02-19T03:51:27.939Z,5.70
2023-02-19T03:54:12.580Z,5.30
2023-02-19T03:56:51.726Z,7.20
2023-02-19T03:59:33.616Z,4.70
2023-02-19T04:07:14.632Z,6.50
2023-02-19T04:09:50.798Z,4.40
2023-02-19T04:12:24.909Z,4.50
2023-02-19T04:15:01.543Z,6.40
2023-02-19T04:17:37.511Z,6.50
2023-02-19T04:20:12.667Z,8.30
2023-02-19T04:22:45.277Z,8.60
2023-02-19T04:25:17.613Z,5.90
2023-02-19T04:27:50.310Z,5.40
2023-02-19T04:30:23.494Z,5.10
2023-02-19T04:32:55.663Z,4.60
2023-02-19T04:35:27.785Z,6.90
2023-02-19T04:38:00.400Z,6.20
2023-02-19T04:40:32.674Z,5.30
2023-02-19T04:43:04.762Z,5.30
2023-02-19T04:45:38.212Z,5.00
2023-02-19T04:48:10.850Z,6.00
2023-02-19T04:50:43.560Z,5.00
2023-02-19T04:53:15.722Z,3.70
2023-02-19T04:55:48.673Z,3.50
2023-02-19T04:58:21.863Z,4.10
2023-02-19T05:00:56.585Z,3.70
2023-02-19T05:03:28.771Z,3.50
2023-02-19T05:06:03.332Z,4.60
2023-02-19T05:08:35.495Z,4.00
2023-02-19T05:11:10.810Z,4.20
2023-02-19T05:13:43.475Z,5.30
2023-02-19T05:16:17.432Z,3.90
2023-02-19T05:18:49.840Z,4.30
2023-02-19T05:21:22.274Z,4.00
2023-02-19T05:23:55.229Z,3.80
2023-02-19T05:26:27.371Z,4.00
2023-02-19T05:29:00.617Z,4.00
2023-02-19T05:31:33.970Z,5.20
2023-02-19T05:34:06.503Z,4.20
2023-02-19T05:36:38.932Z,7.20
2023-02-19T05:39:12.902Z,6.10
2023-02-19T05:41:45.545Z,6.70
2023-02-19T05:44:17.712Z,5.70
2023-02-19T05:46:49.847Z,5.60
2023-02-19T05:49:22.162Z,6.50
2023-02-19T05:51:54.901Z,5.70
2023-02-19T05:54:29.576Z,6.50
2023-02-19T05:57:01.959Z,37.90
2023-02-19T05:59:34.272Z,30.60
2023-02-19T06:02:06.341Z,51.70
2023-02-19T06:04:39.016Z,31.90
2023-02-19T06:07:11.097Z,8.90
2023-02-19T06:09:43.271Z,7.50
2023-02-19T06:12:15.524Z,6.50
2023-02-19T06:14:47.730Z,7.40
2023-02-19T06:17:20.090Z,6.70
2023-02-19T06:19:52.540Z,6.90
2023-02-19T06:22:25.215Z,5.50
2023-02-19T06:24:57.713Z,5.30
2023-02-19T06:27:30.014Z,4.40
2023-02-19T06:30:02.266Z,4.90
2023-02-19T06:32:34.521Z,5.00
2023-02-19T06:35:07.323Z,5.90
2023-02-19T06:37:40.347Z,7.30
2023-02-19T06:40:13.708Z,6.30
2023-02-19T06:42:45.959Z,5.90
2023-02-19T06:45:18.134Z,5.10
2023-02-19T06:47:50.342Z,4.70
2023-02-19T06:50:22.595Z,4.70
2023-02-19T06:52:54.738Z,3.70
2023-02-19T06:55:27.046Z,4.30
2023-02-19T06:57:59.328Z,4.40
2023-02-19T07:00:31.565Z,5.30
2023-02-19T07:03:05.527Z,6.00
2023-02-19T07:05:37.966Z,5.10
2023-02-19T07:08:10.609Z,5.10
2023-02-19T07:10:42.813Z,5.60
2023-02-19T07:13:15.164Z,6.10
2023-02-19T07:15:47.377Z,7.70
2023-02-19T07:18:19.796Z,14.10
2023-02-19T07:20:52.065Z,16.60
2023-02-19T07:23:24.445Z,19.60
2023-02-19T07:25:56.542Z,27.70
2023-02-19T07:28:28.815Z,27.90
2023-02-19T07:31:05.372Z,13.30
2023-02-19T07:33:37.626Z,14.10
2023-02-19T07:36:12.043Z,10.30
2023-02-19T07:38:44.649Z,10.40
2023-02-19T07:41:17.317Z,11.90
2023-02-19T07:43:49.570Z,8.80
2023-02-19T07:46:22.350Z,8.70
2023-02-19T07:48:54.762Z,9.10
2023-02-19T07:51:27.522Z,11.80
2023-02-19T07:54:00.292Z,14.20
2023-02-19T07:56:32.708Z,17.30
2023-02-19T07:59:04.968Z,14.20
2023-02-19T08:01:56.056Z,9.60
2023-02-19T08:04:28.356Z,9.30
2023-02-19T08:07:00.489Z,8.50
2023-02-19T08:09:32.766Z,8.40
2023-02-19T08:12:22.892Z,7.40
2023-02-19T08:14:55.383Z,6.30
2023-02-19T08:17:27.833Z,5.40
2023-02-19T08:20:00.044Z,5.20
2023-02-19T08:22:32.238Z,4.40
2023-02-19T08:25:04.445Z,5.10
2023-02-19T08:27:36.681Z,5.20
2023-02-19T08:30:10.604Z,5.60
2023-02-19T08:32:42.921Z,6.50
2023-02-19T08:35:15.403Z,5.80
2023-02-19T08:37:47.563Z,6.50
2023-02-19T08:40:20.087Z,8.90
2023-02-19T08:42:52.516Z,8.80
2023-02-19T08:45:24.623Z,8.70
2023-02-19T08:47:56.728Z,8.30
2023-02-19T08:50:29.130Z,9.10
2023-02-19T08:53:02.793Z,9.20
2023-02-19T08:55:35.483Z,5.80
2023-02-19T08:58:08.175Z,4.80
2023-02-19T09:00:40.454Z,4.40
2023-02-19T09:03:13.705Z,5.40
2023-02-19T09:05:46.962Z,7.40
2023-02-19T09:08:19.665Z,4.40
2023-02-19T09:11:03.499Z,6.40
2023-02-19T09:13:35.927Z,5.70
2023-02-19T09:16:09.089Z,5.30
2023-02-19T09:18:41.426Z,5.00
2023-02-19T09:21:13.904Z,15.20
2023-02-19T09:23:46.327Z,26.60
2023-02-19T09:26:18.476Z,35.80
2023-02-19T09:28:50.755Z,38.20
2023-02-19T09:31:23.055Z,71.80
2023-02-19T09:33:55.194Z,49.50
2023-02-19T09:36:27.394Z,29.80
2023-02-19T09:39:00.778Z,34.70
2023-02-19T09:41:35.920Z,8.90
2023-02-19T09:44:12.058Z,31.40
2023-02-19T09:49:19.912Z,5.40
2023-02-19T09:51:57.592Z,5.90
2023-02-19T09:54:31.731Z,7.90
2023-02-19T09:57:05.899Z,6.20
2023-02-19T09:59:45.651Z,5.40
2023-02-19T10:02:20.807Z,4.90
2023-02-19T10:04:55.011Z,7.80
2023-02-19T10:07:31.779Z,9.80
2023-02-19T10:10:19.690Z,5.70
2023-02-19T10:12:55.417Z,12.50
2023-02-19T10:15:33.177Z,8.10
2023-02-19T10:18:08.855Z,13.30
2023-02-19T10:20:43.255Z,9.60
2023-02-19T10:23:17.910Z,11.00
2023-02-19T10:25:55.014Z,6.40
2023-02-19T10:28:31.631Z,10.30
2023-02-19T10:31:06.406Z,8.60
2023-02-19T10:33:52.567Z,12.60
2023-02-19T10:36:34.259Z,11.20
2023-02-19T10:39:29.660Z,23.30
2023-02-19T10:42:02.162Z,14.10
2023-02-19T10:44:43.541Z,21.20
2023-02-19T10:47:22.045Z,41.20
2023-02-19T10:49:56.893Z,19.30
2023-02-19T10:52:35.365Z,30.90
2023-02-19T10:55:32.062Z,30.90
2023-02-19T10:58:27.084Z,43.00
2023-02-19T11:04:18.927Z,40.30
2023-02-19T11:06:51.254Z,39.40
2023-02-19T11:09:36.122Z,45.40
2023-02-19T11:12:10.788Z,63.00
2023-02-19T11:14:46.228Z,75.00
2023-02-19T11:17:26.345Z,55.20
2023-02-19T11:20:00.791Z,73.80
2023-02-19T11:22:39.702Z,40.40
2023-02-19T11:25:25.587Z,60.40
2023-02-19T11:28:00.512Z,36.20
2023-02-19T11:30:44.041Z,28.20
2023-02-19T11:33:28.636Z,24.80
2023-02-19T11:36:27.230Z,23.30
2023-02-19T11:39:03.680Z,28.70
2023-02-19T11:42:09.367Z,41.00
2023-02-19T11:44:55.474Z,23.40
2023-02-19T11:48:04.663Z,24.60
2023-02-19T11:50:51.967Z,22.10
2023-02-19T11:53:28.632Z,15.30
2023-02-19T11:56:12.391Z,23.20
2023-02-19T11:59:05.110Z,10.20
2023-02-19T12:02:12.833Z,11.80
2023-02-19T12:05:12.283Z,10.40
2023-02-19T12:08:37.217Z,7.90
2023-02-19T12:11:38.073Z,5.40
2023-02-19T12:17:07.035Z,7.00
2023-02-19T12:19:58.544Z,6.70
2023-02-19T12:22:42.029Z,8.70
2023-02-19T12:25:47.581Z,7.10
2023-02-19T12:28:35.400Z,7.40
2023-02-19T12:31:28.565Z,6.00
2023-02-19T12:34:30.815Z,5.70
2023-02-19T12:37:15.728Z,4.30
2023-02-19T12:39:59.564Z,7.40
2023-02-19T12:42:47.343Z,5.10
2023-02-19T12:45:25.875Z,2.30
2023-02-19T12:48:06.572Z,4.00
2023-02-19T12:50:43.779Z,3.90
2023-02-19T12:53:35.691Z,4.20
2023-02-19T12:56:15.912Z,5.50
2023-02-19T12:58:52.839Z,4.80
2023-02-19T13:01:30.305Z,7.40
2023-02-19T13:04:16.163Z,5.10
2023-02-19T13:06:54.117Z,4.60
2023-02-19T13:09:31.191Z,31.40
2023-02-19T13:12:09.067Z,9.50
2023-02-19T13:14:46.401Z,11.60
2023-02-19T13:17:28.257Z,17.60
2023-02-19T13:20:09.960Z,18.90
2023-02-19T13:23:05.366Z,20.90
2023-02-19T13:25:55.174Z,14.30
2023-02-19T13:28:50.161Z,7.90
2023-02-19T13:34:18.861Z,5.90
2023-02-19T13:36:52.164Z,8.90
2023-02-19T13:39:25.933Z,7.00
2023-02-19T13:42:00.330Z,13.00
2023-02-19T13:44:35.616Z,7.70
2023-02-19T13:47:28.592Z,7.90
2023-02-19T13:50:09.967Z,6.20
2023-02-19T13:52:46.624Z,4.90
2023-02-19T13:55:53.145Z,7.50
2023-02-19T13:58:56.308Z,8.50
2023-02-19T14:02:12.322Z,12.90
2023-02-19T14:04:50.544Z,8.70
2023-02-19T14:07:55.549Z,9.20
2023-02-19T14:11:03.611Z,9.00
2023-02-19T14:14:30.421Z,4.90
2023-02-19T14:17:26.161Z,4.50
2023-02-19T14:20:01.402Z,29.70
2023-02-19T14:23:01.688Z,45.60
2023-02-19T14:25:56.698Z,18.60
2023-02-19T14:28:39.262Z,26.40
2023-02-19T14:33:53.581Z,31.40
2023-02-19T14:36:45.309Z,20.20
2023-02-19T14:39:21.371Z,12.50
2023-02-19T14:41:58.407Z,14.30
2023-02-19T14:44:36.958Z,50.70
2023-02-19T14:47:15.060Z,8.00
2023-02-19T14:49:53.825Z,11.60
2023-02-19T14:52:30.681Z,9.20
2023-02-19T14:55:10.239Z,7.90
2023-02-19T14:57:46.402Z,6.70
2023-02-19T15:00:30.124Z,3.70
2023-02-19T15:03:04.505Z,6.60
2023-02-19T15:05:39.079Z,4.80
2023-02-19T15:08:21.537Z,5.70
2023-02-19T15:10:54.500Z,15.40
2023-02-19T15:13:30.729Z,5.10
2023-02-19T15:16:03.805Z,15.30
2023-02-19T15:18:38.385Z,5.80
2023-02-19T15:21:21.115Z,18.70
2023-02-19T15:23:55.321Z,8.50
2023-02-19T15:26:34.472Z,5.70
2023-02-19T15:29:11.199Z,5.10
2023-02-19T15:31:49.920Z,5.70
2023-02-19T15:34:24.438Z,12.10
2023-02-19T15:37:01.413Z,9.40
2023-02-19T15:39:39.976Z,8.20
2023-02-19T15:42:18.491Z,47.70
2023-02-19T15:44:57.309Z,10.80
2023-02-19T15:47:36.026Z,25.80
2023-02-19T15:50:17.331Z,13.30
2023-02-19T15:52:59.434Z,18.40
2023-02-19T15:58:16.343Z,8.50
2023-02-19T16:00:54.577Z,7.50
2023-02-19T16:03:29.631Z,6.50
2023-02-19T16:06:05.419Z,5.20
2023-02-19T16:08:40.377Z,8.00
2023-02-19T16:11:30.475Z,7.90
2023-02-19T16:14:30.156Z,4.90
2023-02-19T16:17:14.174Z,10.80
2023-02-19T16:19:54.203Z,5.80
2023-02-19T16:22:31.192Z,6.20
2023-02-19T16:25:08.123Z,5.40
2023-02-19T16:27:43.458Z,8.10
2023-02-19T16:30:28.650Z,5.60
2023-02-19T16:33:33.097Z,6.30
2023-02-19T16:39:20.130Z,7.60
2023-02-19T16:42:21.555Z,10.60
2023-02-19T16:44:54.336Z,8.30
2023-02-19T16:47:32.982Z,5.80
2023-02-19T16:50:12.848Z,7.70
2023-02-19T16:52:56.331Z,7.10
2023-02-19T16:55:30.508Z,7.50
2023-02-19T16:58:02.961Z,6.80
2023-02-19T17:00:35.390Z,5.70
2023-02-19T17:03:12.197Z,5.70
2023-02-19T17:05:45.077Z,5.40
2023-02-19T17:08:34.279Z,5.80
2023-02-19T17:11:11.931Z,7.70
2023-02-19T17:13:46.426Z,9.50
2023-02-19T17:16:23.264Z,10.50
2023-02-19T17:18:59.139Z,7.80
2023-02-19T17:21:33.564Z,10.30
2023-02-19T17:24:06.399Z,9.90
2023-02-19T17:26:39.580Z,11.10
2023-02-19T17:29:18.539Z,10.50
2023-02-19T17:31:51.750Z,9.30
2023-02-19T17:34:24.514Z,10.90
2023-02-19T17:36:56.998Z,11.40
2023-02-19T17:39:30.169Z,40.50
2023-02-19T17:42:02.683Z,18.60
2023-02-19T17:44:34.838Z,49.80
2023-02-19T17:47:07.551Z,32.20
2023-02-19T17:49:39.874Z,34.20
2023-02-19T17:52:17.178Z,9.00
2023-02-19T17:54:49.468Z,10.80
2023-02-19T17:57:22.103Z,17.70
2023-02-19T17:59:54.671Z,8.30
2023-02-19T18:02:27.287Z,9.20
2023-02-19T18:04:59.459Z,10.70
2023-02-19T18:07:33.194Z,7.70
2023-02-19T18:10:06.301Z,7.60
2023-02-19T18:12:39.153Z,8.40
2023-02-19T18:15:17.248Z,10.00
2023-02-19T18:17:50.514Z,8.50
2023-02-19T18:20:25.122Z,9.00
2023-02-19T18:22:58.025Z,13.00
2023-02-19T18:25:30.592Z,9.80
2023-02-19T18:28:02.886Z,8.70
2023-02-19T18:30:35.856Z,7.10
2023-02-19T18:33:13.854Z,10.30
2023-02-19T18:35:47.526Z,9.10
2023-02-19T18:38:19.783Z,10.40
2023-02-19T18:40:52.118Z,10.00
2023-02-19T18:43:24.603Z,9.10
2023-02-19T18:45:56.989Z,6.50
2023-02-19T18:48:29.725Z,7.70
2023-02-19T18:51:01.945Z,10.60
2023-02-19T18:53:34.279Z,14.40
2023-02-19T18:56:09.234Z,17.90
2023-02-19T18:58:41.566Z,36.30
2023-02-19T19:01:15.981Z,34.10
2023-02-19T19:03:48.519Z,29.10
2023-02-19T19:06:20.800Z,21.10
2023-02-19T19:08:53.348Z,20.60
2023-02-19T19:11:27.019Z,22.90
2023-02-19T19:13:59.655Z,20.40
2023-02-19T19:16:33.307Z,17.10
2023-02-19T19:19:06.146Z,21.80
2023-02-19T19:21:38.600Z,26.10
2023-02-19T19:24:11.754Z,18.80
2023-02-19T19:26:48.389Z,18.30
2023-02-19T19:29:22.430Z,13.90
2023-02-19T19:31:54.735Z,12.80
2023-02-19T19:34:27.126Z,14.90
2023-02-19T19:36:59.752Z,12.90
2023-02-19T19:39:32.272Z,14.70
2023-02-19T19:42:05.108Z,17.40
2023-02-19T19:44:37.838Z,15.20
2023-02-19T19:47:10.315Z,11.00
2023-02-19T19:49:43.199Z,10.40
2023-02-19T19:52:16.036Z,11.10
2023-02-19T19:54:48.349Z,10.30
2023-02-19T19:57:27.499Z,11.00
2023-02-19T20:00:02.409Z,9.70
2023-02-19T20:02:46.957Z,14.30
2023-02-19T20:05:19.561Z,20.30
2023-02-19T20:07:52.167Z,18.00
2023-02-19T20:10:24.812Z,21.70
2023-02-19T20:12:56.973Z,19.90
2023-02-19T20:15:29.150Z,16.70
2023-02-19T20:18:02.845Z,18.60
2023-02-19T20:20:35.321Z,19.00
2023-02-19T20:23:07.905Z,19.40
2023-02-19T20:25:40.582Z,17.20
2023-02-19T20:28:12.854Z,17.70
2023-02-19T20:30:45.378Z,17.00
2023-02-19T20:33:17.873Z,17.90
2023-02-19T20:35:50.442Z,13.20
2023-02-19T20:38:22.682Z,17.10
2023-02-19T20:40:54.825Z,17.60
2023-02-19T20:43:28.537Z,13.60
2023-02-19T20:46:01.454Z,15.60
2023-02-19T20:48:33.723Z,12.40
2023-02-19T20:51:06.348Z,13.10
2023-02-19T20:53:40.874Z,11.90
2023-02-19T20:56:13.754Z,12.70
2023-02-19T20:58:46.619Z,12.00
2023-02-19T21:01:18.936Z,15.10
2023-02-19T21:03:51.593Z,8.80
2023-02-19T21:06:24.786Z,10.50
2023-02-19T21:08:57.162Z,10.60
2023-02-19T21:11:31.205Z,10.00
2023-02-19T21:14:03.320Z,7.20
2023-02-19T21:16:36.014Z,8.80
2023-02-19T21:19:08.496Z,10.90
2023-02-19T21:21:40.884Z,7.10
2023-02-19T21:24:16.132Z,8.20
2023-02-19T21:26:48.382Z,8.90
2023-02-19T21:29:22.455Z,11.50
2023-02-19T21:31:56.410Z,12.70
2023-02-19T21:34:30.513Z,10.90
2023-02-19T21:37:02.657Z,8.80
2023-02-19T21:39:34.986Z,10.70
2023-02-19T21:42:07.301Z,9.30
2023-02-19T21:44:41.254Z,10.00
2023-02-19T21:47:14.742Z,7.20
2023-02-19T21:49:47.218Z,7.20
2023-02-19T21:52:19.881Z,8.30
2023-02-19T21:54:52.388Z,8.40
2023-02-19T21:57:24.624Z,8.50
2023-02-19T21:59:57.229Z,9.80
2023-02-19T22:02:30.665Z,7.70
2023-02-19T22:05:03.334Z,6.70
2023-02-19T22:07:35.628Z,8.10
2023-02-19T22:10:09.791Z,9.30
2023-02-19T22:12:41.988Z,6.70
2023-02-19T22:15:15.383Z,7.60
2023-02-19T22:17:47.447Z,9.30
2023-02-19T22:20:19.946Z,6.90
2023-02-19T22:22:52.139Z,8.60
2023-02-19T22:25:24.561Z,9.00
2023-02-19T22:27:57.254Z,10.80
2023-02-19T22:30:30.986Z,8.80
2023-02-19T22:33:03.471Z,8.30
2023-02-19T22:35:36.221Z,6.40
2023-02-19T22:38:08.258Z,9.00
2023-02-19T22:40:40.613Z,8.40
2023-02-19T22:43:12.721Z,7.70
2023-02-19T22:45:44.978Z,6.20
2023-02-19T22:48:29.420Z,6.40
2023-02-19T22:51:02.718Z,6.20
2023-02-19T22:53:34.848Z,7.10
2023-02-19T22:56:07.498Z,5.30
2023-02-19T22:58:39.560Z,5.10
2023-02-19T23:01:13.044Z,4.50
2023-02-19T23:03:54.348Z,5.70
2023-02-19T23:06:29.660Z,9.20
2023-02-19T23:09:03.724Z,5.80
2023-02-19T23:11:39.399Z,6.30
2023-02-19T23:14:11.492Z,7.10
2023-02-19T23:16:43.555Z,7.90
2023-02-19T23:19:16.965Z,9.40
2023-02-19T23:21:49.526Z,8.50
2023-02-19T23:24:22.043Z,6.80
2023-02-19T23:26:55.118Z,7.00
2023-02-19T23:29:30.549Z,9.90
2023-02-19T23:32:02.723Z,7.70
2023-02-19T23:34:35.215Z,9.70
2023-02-19T23:37:07.996Z,9.90
2023-02-19T23:39:40.306Z,8.90
2023-02-19T23:42:16.932Z,8.00
2023-02-19T23:44:50.574Z,5.60
2023-02-19T23:47:23.191Z,5.70
2023-02-19T23:49:55.448Z,9.60
2023-02-19T23:52:27.678Z,7.30
2023-02-19T23:54:59.967Z,7.90
2023-02-19T23:57:32.223Z,8.00
